Retreat, Georgia
Current Conditions -  °F | °C
As of 8:58 AM on Sunday 25 Jan 2015 (Local Time) from KLHW Reporting Station
Clear Clear  
Wind Chill: 34°   Ceiling: Unl
Heat Index: 39°   Visibility: 10mi
Dew Point: 34°   Wind: 6mph
Humidity: 83%   Direction: 240°WSW
Pressure: 30.03"   Gusts: NA
Location:  31.7217°N, 81.4475°W
Report Text: KLHW 251358Z AUTO 24005KT 10SM CLR 04/01 A3003 RMK AO2 SLP172 T00370010
Loading
Personal Weather Stations






























Interactive Weather Map New forecast layout! Learn more

10-Day Weather Forecast

Advertisements
Track Severe Weather on mobile